Etusivu
METAR-TAF:

METAR-TAF

Lentoasemat :

Palacios Municipal Airport

Palacios, Texas, Yhdysvallat

Leveyspiiri: 28-43-39N, Pituuspiiri: 096-15-03W, korkeus merenpinnasta: 5 m

Tämänhetkinen sää

Tämä raportti tehtiin 21 minuuttia sitten, kello 15.52 UTC
Tuuli 19 kn pohjoisesta puuskistuen 27 kn:hen
Lämpötila 12°C
Kosteus 100%
Ilmanpaine 1017 hPa
Näkyvyys: 16.1 km
Pilvistä 600 ft:n korkeudessa

METAR: KPSX 011552Z AUTO 36019G27KT 10SM OVC006 12/12 A3004 RMK AO2 PK WND 36027/1552 SLP171 T01220122

Aika: 10:13 (16:13 UTC)


TAF: puuttuu

Säähavainnot ja -ennusteet yli 4000 lentoasemalta (METAR- ja TAF-raportit).

Käytössä olevat sääasemat on merkitty karttaan keltaisilla ja punaisilla pisteillä.

Aseta hiiri pisteen päälle nähdäksesi sääaseman nimen.

Klikkaa sitten nähdäksesi säähavainnot ja -ennusteet.

Kartan vaihtaminen: klikkaa mustalla rastilla varustettuja vihreitä pisteitä, niin voit zoomata sisään; viivalla varustettua vihreää pistettä, niin voit zoomata ulos tai vihreitä nuolia, niin pääset viereisille kartoille.


METAR-TAF: